Weather observations for the past three days for
Flemingsburg Fleming-Mason Airport
Imperial (Metric)
Date Time (edt) Wind (mph) Vis. (mi.) Weather Sky Cond. Temperature (ºF) Relative Humidity Wind Chill (°F) Heat Index (°F) Pressure Precipitation (in)
Air Dwpt 6 hour altimeter (in) sea level (mb) 1 hr 3 hr 6 hr
Max. Min.
01 17:15 W 5 10.00 Fair CLR 93.2 68.2 44% 98 30.08 0.0
01 16:55 W 7 10.00 Fair CLR 94.3 68 42% 99 30.08 0.0
01 16:35 W 6 10.00 Fair CLR 93.4 67.3 42% 97 30.09 0.0
01 16:15 W 9 10.00 Fair CLR 92.3 65.7 42% 95 30.09 0.0
01 15:55 W 6 10.00 Fair CLR 93.6 66.7 41% 97 30.1 0.0
01 15:35 W 7 10.00 Fair CLR 93.9 67.5 42% 98 30.1 0.0
01 15:15 NW 6 G 9 10.00 Fair CLR 93 65.3 40% 95 30.11 0.0
01 14:55 NW 7 10.00 Fair CLR 92.7 65.5 41% 95 30.11 0.0
01 14:35 W 5 10.00 Fair CLR 93 67.6 43% 97 30.12 0.0
01 14:15 W 9 10.00 Fair CLR 93.4 67.3 42% 97 30.12 0.0
01 13:55 W 12 10.00 Fair CLR 92.5 67.8 92.5 72.5 44% 97 30.13 0.0
01 13:35 W 9 10.00 Fair CLR 91.8 67.6 45% 96 30.13 0.0
01 13:15 W 8 G 17 10.00 Fair CLR 91.9 68.5 46% 97 30.14 0.0
01 12:55 W 13 10.00 Fair CLR 91 69.3 49% 96 30.14 0.0
01 12:35 W 12 10.00 Fair CLR 90.7 69.6 50% 96 30.15 0.0
01 12:15 W 13 G 18 10.00 Fair CLR 88.9 68.7 51% 93 30.15 0.0
01 11:55 W 13 G 16 10.00 Fair CLR 89.2 69.6 52% 94 30.14 0.0
01 11:35 W 10 G 16 10.00 Fair CLR 88.2 69.1 53% 93 30.15 0.0
01 11:15 W 9 10.00 Fair CLR 87.6 70.2 56% 93 30.15 0.0
01 10:55 NW 9 10.00 Fair CLR 87.1 70.2 57% 92 30.15 0.0
01 10:35 NW 6 10.00 Fair CLR 85.1 70.2 61% 90 30.15 0.0
01 10:15 W 5 10.00 Fair CLR 83.8 70.3 64% 88 30.15 0.0
01 09:55 W 6 10.00 Fair CLR 82.8 71.1 68% 87 30.15 0.0
01 09:35 W 7 10.00 Fair CLR 81.1 70.7 71% 85 30.15 0.0
01 09:15 W 7 10.00 Fair CLR 80.1 70.5 73% 83 30.15 0.0
01 08:55 W 6 10.00 Fair CLR 78.3 70.2 76% 81 30.15 0.0
01 08:35 W 5 10.00 Fair CLR 75.9 69.8 81% 77 30.16 0.0
01 08:15 SW 5 10.00 Fair CLR 74.1 69.4 85% 30.16 0.0
01 07:55 W 5 10.00 Fair CLR 72.5 69.3 75 70.7 90% 30.15 0.0
01 07:35 SW 6 10.00 Fair CLR 71.6 68.9 91% 30.14 0.0
01 07:15 SW 5 10.00 Fair CLR 70.9 68.9 94% 30.13 0.0
01 06:55 SW 3 10.00 Fair CLR 70.7 68.7 93% 30.13 0.0
01 06:35 SW 3 10.00 Fair CLR 70.9 68.9 94% 30.12 0.0
01 06:15 SW 3 10.00 Fair CLR 71.1 68.9 93% 30.12 0.0
01 05:55 SW 3 10.00 Fair CLR 71.4 69.1 92% 30.11 0.0
01 05:35 SW 3 10.00 Fair CLR 71.6 69.3 92% 30.11 0.0
01 05:15 S 3 10.00 Fair CLR 72 69.3 91% 30.11 0.0
01 04:55 Calm 10.00 Fair CLR 72.1 69.1 90% 30.1 0.0
01 04:35 Calm 10.00 Fair CLR 72.5 69.1 89% 30.1 0.0
01 04:15 Calm 10.00 Fair CLR 72.7 68.9 88% 30.09 0.0
01 03:55 SW 3 10.00 Fair CLR 73.4 69.1 86% 30.09 0.0
01 03:35 SW 7 10.00 Fair CLR 73.4 69.1 86% 30.08 0.0
01 03:15 SW 7 10.00 Fair CLR 73.9 69.4 86% 30.08 0.0
01 02:55 SW 6 10.00 Fair CLR 74.1 69.1 84% 30.08 0.0
01 02:35 SW 7 10.00 Fair CLR 74.5 69.1 83% 30.09 0.0
01 02:15 SW 7 10.00 Fair CLR 74.7 68.9 82% 30.09 0.0
01 01:55 SW 6 10.00 Fair CLR 74.8 68.5 84.2 74.8 81% 30.1 0.0
01 01:35 SW 6 10.00 Fair CLR 75.2 68.2 79% 76 30.11 0.0
01 01:15 SW 5 10.00 Fair CLR 75.2 68 78% 76 30.11 0.0
01 00:55 SW 6 10.00 Fair CLR 75.9 68 77% 77 30.11 0.0
01 00:35 S 7 10.00 Fair CLR 76.3 68 76% 78 30.11 0.0
01 00:15 S 7 10.00 Fair CLR 77 68 74% 79 30.12 0.0
31 23:55 S 7 10.00 Fair CLR 78.3 67.8 70% 80 30.12 0.0
31 23:35 S 5 10.00 Fair CLR 77.2 68 73% 79 30.12 0.0
31 23:15 S 3 10.00 Fair CLR 76.8 68.4 75% 78 30.12 0.0
31 22:55 S 3 10.00 Fair CLR 76.3 68.9 78% 78 30.12 0.0
31 22:35 SE 3 10.00 Fair CLR 76.8 68.7 76% 78 30.12 0.0
31 22:15 Calm 10.00 Fair CLR 78.8 68.5 71% 81 30.12 0.0
31 21:55 Calm 10.00 Fair CLR 78.8 68.5 71% 81 30.12 0.0
31 21:35 Calm 10.00 Fair CLR 81 68.4 66% 84 30.11 0.0
31 21:15 SW 3 10.00 Fair CLR 80.6 68.2 66% 83 30.1 0.0
31 20:55 SW 3 10.00 Fair CLR 81.9 68.5 64% 85 30.09 0.0
31 20:35 SW 3 10.00 Fair CLR 82.6 68.5 63% 86 30.09 0.0
31 20:15 SW 5 10.00 Fair CLR 83.3 68.5 61% 87 30.08 0.0
31 19:35 W 5 10.00 Fair CLR 85.6 69.1 58% 90 30.08 0.0
31 19:15 W 7 10.00 Fair CLR 87.3 68.5 54% 91 30.08 0.0
31 18:55 W 7 10.00 Fair CLR 89.2 68.5 51% 93 30.08 0.0
31 18:35 W 8 10.00 Fair CLR 90 68.4 49% 94 30.09 0.0
31 18:15 W 8 10.00 Fair CLR 91.2 68.2 47% 95 30.1 0.0
31 17:55 NW 9 10.00 Fair CLR 91.8 67.5 45% 96 30.1 0.0
31 17:35 NW 10 10.00 Fair CLR 92.1 67.3 44% 96 30.1 0.0
31 17:15 W 8 10.00 Fair CLR 92.7 67.6 44% 97 30.1 0.0
31 16:55 W 10 10.00 Partly Cloudy SCT070 92.3 67.6 44% 96 30.11 0.0
31 16:35 W 7 G 17 10.00 Partly Cloudy SCT049 92.3 68.9 46% 97 30.11 0.0
31 16:15 W 10 10.00 Partly Cloudy SCT049 SCT060 92.7 69.3 46% 98 30.11 0.0
31 15:55 W 9 10.00 Fair CLR 92.7 70 48% 99 30.12 0.0
31 15:35 W 12 G 16 10.00 Partly Cloudy SCT044 91 68.9 48% 96 30.13 0.0
31 15:15 W 12 10.00 Partly Cloudy SCT044 91.4 70.5 51% 98 30.14 0.0
31 14:55 NW 13 10.00 Partly Cloudy SCT044 SCT060 90 69.1 50% 95 30.15 0.0
31 14:35 W 12 10.00 Partly Cloudy SCT048 SCT055 SCT085 91.6 70.5 50% 98 30.15 0.0
31 14:15 W 12 10.00 Mostly Cloudy SCT046 SCT050 BKN065 91.8 69.8 49% 97 30.15 0.0
31 13:55 W 12 G 17 10.00 Mostly Cloudy SCT044 SCT050 BKN060 92.3 70.5 92.3 72.3 49% 99 30.15 0.0
31 13:35 W 10 10.00 Mostly Cloudy SCT044 BKN060 BKN070 92.3 70.9 50% 99 30.16 0.0
31 13:15 W 15 G 21 10.00 Mostly Cloudy SCT044 BKN060 BKN070 91.6 70.5 50% 98 30.16 0.0
31 12:55 W 13 G 18 10.00 Partly Cloudy SCT042 89.8 70.5 53% 96 30.17 0.0
31 12:15 W 9 10.00 Fair CLR 88.9 71.6 57% 95 30.17 0.0
31 11:55 W 12 10.00 Fair CLR 87.8 70.3 56% 93 30.17 0.0
31 11:35 W 7 10.00 Fair CLR 87.6 70.2 56% 93 30.17 0.0
31 11:15 W 7 10.00 Fair CLR 85.5 70 60% 90 30.17 0.0
31 10:55 W 6 10.00 Fair CLR 84.2 70.5 64% 89 30.17 0.0
31 10:35 W 7 10.00 Fair CLR 82 71.1 69% 86 30.17 0.0
31 10:15 W 5 10.00 Fair CLR 78.8 69.8 74% 81 30.17 0.0
31 09:55 W 7 10.00 Fair CLR 77.7 69.8 77% 80 30.16 0.0
31 09:35 W 7 10.00 Fair CLR 76.6 69.3 78% 78 30.16 0.0
31 09:15 W 6 10.00 Fair CLR 75.9 69.1 79% 77 30.16 0.0
31 08:55 W 6 10.00 Fair CLR 75.2 68.9 81% 76 30.16 0.0
31 08:35 W 6 10.00 Fair CLR 74.1 68.5 83% 30.15 0.0
31 08:15 SW 5 10.00 Fair CLR 73.4 68.4 84% 30.15 0.0
31 07:55 SW 5 10.00 Fair CLR 72.1 68 73.4 70.9 87% 30.15 0.0
31 07:35 SW 3 10.00 Fair CLR 72 68 87% 30.15 0.0
31 07:15 SW 5 10.00 Fair CLR 72.1 68 87% 30.13 0.0
31 06:55 SW 7 10.00 Fair CLR 71.8 68 88% 30.13 0.0
31 06:35 SW 5 10.00 Fair CLR 71.6 68 88% 30.12 0.0
31 06:15 S 3 10.00 Fair CLR 71.6 68 88% 30.12 0.0
31 05:55 S 3 10.00 Fair CLR 71.4 67.8 88% 30.12 0.0
31 05:35 S 5 10.00 Fair CLR 71.1 67.8 90% 30.11 0.0
31 05:15 S 3 10.00 Fair CLR 71.8 68 88% 30.12 0.0
31 04:55 SW 3 10.00 Fair CLR 71.6 68 88% 30.12 0.0
31 04:35 S 5 10.00 Fair CLR 71.6 68 88% 30.11 0.0
31 04:15 S 5 10.00 Fair CLR 71.8 67.8 87% 30.11 0.0
31 03:55 S 6 10.00 Fair CLR 72.5 68 86% 30.11 0.0
31 03:35 S 5 10.00 Fair CLR 72.3 68 86% 30.11 0.0
31 03:15 S 5 10.00 Fair CLR 72.1 67.6 86% 30.12 0.0
31 02:55 SW 3 10.00 Fair CLR 72.9 67.5 83% 30.12 0.0
31 02:35 SW 3 10.00 Fair CLR 73.4 67.5 82% 30.12 0.0
31 02:15 S 5 10.00 Fair CLR 72.9 67.6 84% 30.12 0.0
31 01:55 S 5 10.00 Fair CLR 73 67.6 82.9 73 83% 30.13 0.0
31 01:35 SW 5 10.00 Fair CLR 73.2 67.8 83% 30.12 0.0
31 01:15 S 6 10.00 Fair CLR 73.9 67.6 81% 30.13 0.0
31 00:55 SW 5 10.00 Fair CLR 74.3 67.3 79% 30.13 0.0
31 00:35 S 5 10.00 Fair CLR 74.8 67.1 77% 30.13 0.0
31 00:15 S 5 10.00 Fair CLR 74.7 67.1 77% 30.13 0.0
30 23:55 S 5 10.00 Fair CLR 75.2 66.9 76% 76 30.13 0.0
30 23:35 S 5 10.00 Fair CLR 74.5 67.5 79% 30.13 0.0
30 23:15 S 3 10.00 Fair CLR 74.1 68 81% 30.13 0.0
30 22:55 S 3 10.00 Fair CLR 75.4 67.5 77% 76 30.13 0.0
30 22:35 S 3 10.00 Fair CLR 75.7 67.5 76% 77 30.13 0.0
30 22:15 S 3 10.00 Fair CLR 75.7 67.3 75% 77 30.13 0.0
30 21:55 S 5 10.00 Fair CLR 75.9 67.3 75% 77 30.13 0.0
30 21:35 Calm 10.00 Fair CLR 77.2 66.4 69% 79 30.13 0.0
30 21:15 SE 3 10.00 Fair CLR 78.1 66.4 67% 80 30.12 0.0
30 20:55 Calm 10.00 Fair CLR 80.4 65.3 60% 82 30.11 0.0
30 20:35 Calm 10.00 Fair CLR 81.5 65.5 58% 83 30.11 0.0
30 20:15 Calm 10.00 Fair CLR 81.5 65.5 58% 83 30.1 0.0
30 19:55 W 3 10.00 Fair CLR 83.3 66.6 90.7 83.3 57% 86 30.1 0.0
30 19:35 Calm 10.00 Fair CLR 83.8 66.2 55% 86 30.1 0.0
30 19:15 W 3 10.00 Fair CLR 83.3 66.2 56% 86 30.09 0.0
30 18:55 W 5 10.00 Fair CLR 86.9 67.3 52% 90 30.09 0.0
30 18:35 SW 3 10.00 Fair CLR 88.2 66.6 49% 91 30.09 0.0
30 18:15 Calm 10.00 Fair CLR 88.3 67.1 49% 91 30.09 0.0
30 17:55 Calm 10.00 Fair CLR 85.3 68.5 57% 89 30.1 0.0
30 17:35 Calm 10.00 Fair CLR 86 67.6 54% 89 30.1 0.0
30 17:15 W 3 10.00 Fair CLR 86.2 65.8 51% 88 30.1 0.0
30 16:55 W 3 10.00 Fair CLR 87.4 64.2 46% 89 30.11 0.0
30 16:35 W 3 10.00 Partly Cloudy SCT050 SCT080 SCT090 88.3 66.2 48% 91 30.11 0.0
30 16:15 N 3 10.00 Mostly Cloudy SCT050 SCT080 BKN090 89.6 67.3 48% 93 30.12 0.0
30 15:55 W 8 10.00 Partly Cloudy SCT050 SCT070 SCT100 90 67.3 47% 93 30.13 0.0
30 15:35 W 6 10.00 Mostly Cloudy SCT060 BKN090 89.6 66.4 46% 92 30.13 0.0
30 15:15 W 8 10.00 Partly Cloudy SCT090 90.1 67.5 47% 94 30.15 0.0
30 14:55 W 8 10.00 Mostly Cloudy BKN090 84.9 67.6 56% 88 30.15 0.0
30 14:35 W 8 10.00 Fair CLR 87.3 65.8 49% 90 30.16 0.0
30 14:15 W 5 10.00 Partly Cloudy SCT050 SCT065 SCT090 88.3 65.1 46% 90 30.16 0.0
30 13:55 NW 12 10.00 Mostly Cloudy SCT048 SCT055 BKN090 88.7 66 90.3 68.5 47% 91 30.17 0.0
30 13:35 NW 8 10.00 Mostly Cloudy SCT046 BKN065 BKN080 87.8 66.7 50% 91 30.17 0.0
30 13:15 W 6 10.00 Partly Cloudy SCT065 88.3 68.4 52% 92 30.18 0.0
30 12:55 W 6 10.00 Fair CLR 88.9 70 54% 94 30.18 0.0
30 12:35 W 8 10.00 Fair CLR 86.7 69.8 57% 91 30.19 0.0
30 12:15 SW 6 10.00 Fair CLR 87.1 70.3 58% 92 30.19 0.0
30 11:35 W 6 10.00 Fair CLR 85.1 70.7 62% 90 30.19 0.0
30 11:15 W 7 10.00 Fair CLR 83.8 70 63% 88 30.18 0.0
30 10:55 W 7 10.00 Fair CLR 82.4 70 66% 86 30.18 0.0
30 10:35 W 7 10.00 Fair CLR 81.3 69.3 67% 85 30.18 0.0
30 10:15 SW 7 10.00 Fair CLR 80.1 69.1 69% 83 30.17 0.0
30 09:55 W 7 10.00 Fair CLR 79.5 68.9 70% 82 30.17 0.0
30 09:35 W 7 10.00 Fair CLR 78.4 68.5 72% 81 30.17 0.0
30 09:15 W 7 10.00 Fair CLR 76.8 68 74% 78 30.17 0.0
30 08:55 W 6 10.00 Fair CLR 73.9 66.9 79% 30.17 0.0
30 08:35 SW 6 10.00 Fair CLR 71.8 65.5 81% 30.17 0.0
30 08:15 S 5 10.00 Partly Cloudy SCT065 69.4 64.8 85% 30.16 0.0
30 07:55 S 5 10.00 Fair CLR 68.4 63.7 69.3 65.5 85% 30.16 0.0
30 07:35 Calm 10.00 Fair CLR 67.6 63 85% 30.16 0.0
30 07:15 S 3 10.00 Fair CLR 67.6 62.8 85% 30.15 0.0
30 06:55 S 3 10.00 Fair CLR 66.4 62.8 88% 30.15 0.0
30 06:35 Calm 10.00 Fair CLR 66.9 62.8 87% 30.15 0.0
30 06:15 SE 3 10.00 Fair CLR 66.2 62.6 88% 30.15 0.0
30 05:55 SE 3 10.00 Fair CLR 65.8 62.6 89% 30.15 0.0
30 05:35 SE 3 10.00 Fair CLR 65.8 62.2 88% 30.15 0.0
30 05:15 Calm 10.00 Fair CLR 67.6 62.1 82% 30.15 0.0
30 04:55 Calm 10.00 Fair CLR 68 62.4 82% 30.15 0.0
30 04:35 Calm 10.00 Partly Cloudy SCT070 67.3 62.2 84% 30.15 0.0
30 04:15 Calm 10.00 Partly Cloudy SCT070 67.1 62.2 84% 30.15 0.0
30 03:55 Calm 10.00 Partly Cloudy SCT070 68 61.9 81% 30.15 0.0
30 03:35 S 3 10.00 Fair CLR 66.9 62.6 86% 30.15 0.0
30 03:15 Calm 10.00 Fair CLR 67.3 62.6 85% 30.15 0.0
30 02:55 Calm 10.00 Fair CLR 68.7 61.9 79% 30.15 0.0
30 02:35 Calm 10.00 Fair CLR 69.3 62.1 78% 30.16 0.0
30 02:15 Calm 10.00 Fair CLR 68.5 62.1 80% 30.16 0.0
30 01:55 S 3 10.00 Fair CLR 68.5 62.6 80.4 68 81% 30.16 0.0
30 01:35 S 3 10.00 Fair CLR 69.3 62.4 79% 30.16 0.0
30 01:15 SE 3 10.00 Fair CLR 68.7 62.6 81% 30.16 0.0
30 00:55 S 5 10.00 Fair CLR 68 63 84% 30.16 0.0
30 00:35 SE 5 10.00 Fair CLR 68.9 62.8 81% 30.16 0.0
30 00:15 SE 6 10.00 Fair CLR 69.8 62.8 79% 30.16 0.0
29 23:55 SE 6 10.00 Fair CLR 69.8 63 79% 30.16 0.0
29 23:35 SE 6 10.00 Fair CLR 69.8 63.5 81% 30.16 0.0
29 23:15 SE 6 10.00 Fair CLR 70 63.5 80% 30.16 0.0
29 22:55 SE 5 10.00 Fair CLR 71.1 63.5 77% 30.15 0.0
29 22:35 SE 5 10.00 Fair CLR 71.6 63.5 76% 30.15 0.0
29 22:15 SE 5 10.00 Fair CLR 72.5 64.2 75% 30.15 0.0
29 21:55 SE 5 10.00 Fair CLR 74.3 63.5 69% 30.15 0.0
29 21:35 SE 5 10.00 Fair CLR 75.2 63.3 67% 77 30.15 0.0
29 21:15 SE 3 10.00 Fair CLR 75.9 63.5 66% 78 30.14 0.0
29 20:55 Calm 10.00 Fair CLR 76.8 63.3 63% 79 30.13 0.0
29 20:35 E 3 10.00 Fair CLR 77.9 63 60% 80 30.13 0.0
29 20:15 E 3 10.00 Fair CLR 78.6 62.6 58% 80 30.14 0.0
29 19:55 E 5 10.00 Fair CLR 80.8 62.2 88.7 80.8 53% 82 30.14 0.0
29 19:35 Calm 10.00 Fair CLR 82.4 61.3 49% 83 30.13 0.0
29 19:15 Calm 10.00 Fair CLR 83.8 59.7 44% 84 30.13 0.0
29 18:55 Calm 10.00 Fair CLR 84.4 58.1 41% 84 30.13 0.0
29 18:35 Calm 10.00 Fair CLR 85.1 57.9 40% 84 30.13 0.0
29 18:15 Calm 10.00 Fair CLR 86.5 57.2 37% 85 30.13 0.0
29 17:55 W 3 10.00 Fair CLR 86.9 57 36% 86 30.13 0.0
29 17:35 W 6 10.00 Partly Cloudy SCT070 88.2 55.4 33% 86 30.14 0.0
Date Time (edt) Wind (mph) Vis. (mi.) Weather Sky Cond. Air Dwpt Max. Min. Relative Humidity Wind Chill (°F) Heat Index (°F) altimeter (in) sea level (mb) 1 hr 3 hr 6 hr
6 hour
Temperature (ºF) Pressure Precipitation (in)